Time;durP1;ratioP1;P1;durP2;ratioP2;P2;SDS_P1;SDS_P2;PMS_P1;PMS_P2;Temp;Humidity;BMP_temperature;BMP_pressure;BME280_temperature;BME280_humidity;BME280_pressure;Samples;Min_cycle;Max_cycle;Signal;HPM_P1;HPM_P2
2022/03/02 00:02:20;;;;;;;0.90;0.32;;;4.80;99.90;;;;;;5129354;28;20477;-85
2022/03/02 00:04:47;;;;;;;0.15;0.15;;;4.60;99.90;;;;;;5116129;28;20047;-90
2022/03/02 00:07:14;;;;;;;0.10;0.10;;;4.50;99.90;;;;;;5132810;28;20428;-89
2022/03/02 00:09:41;;;;;;;0.10;0.10;;;4.80;99.90;;;;;;5100193;28;20104;-85
2022/03/02 00:12:08;;;;;;;0.20;0.20;;;4.50;99.90;;;;;;5133563;28;20062;-85
2022/03/02 00:14:34;;;;;;;0.10;0.10;;;4.50;99.90;;;;;;5083289;28;20496;-85
2022/03/02 00:17:01;;;;;;;0.10;0.10;;;4.50;99.90;;;;;;5083347;28;20043;-86
2022/03/02 00:19:28;;;;;;;0.20;0.20;;;4.50;99.90;;;;;;5083342;28;20074;-85
2022/03/02 00:21:55;;;;;;;0.20;0.20;;;4.20;99.90;;;;;;5083106;28;20047;-85
2022/03/02 00:24:21;;;;;;;0.10;0.10;;;4.40;99.90;;;;;;5082324;28;20444;-89
2022/03/02 00:26:48;;;;;;;0.10;0.10;;;4.40;99.90;;;;;;5133263;28;20116;-89
2022/03/02 00:29:15;;;;;;;0.15;0.15;;;4.40;99.90;;;;;;5132775;28;20036;-85
2022/03/02 00:31:42;;;;;;;0.10;0.10;;;4.40;99.90;;;;;;5083279;28;20042;-85
2022/03/02 00:34:09;;;;;;;0.10;0.10;;;4.40;99.90;;;;;;5115977;28;20032;-85
2022/03/02 00:36:36;;;;;;;0.10;0.10;;;4.40;99.90;;;;;;5133024;28;20497;-85
2022/03/02 00:39:04;;;;;;;0.17;0.17;;;4.40;99.90;;;;;;5150360;28;20131;-85
2022/03/02 00:41:30;;;;;;;0.10;0.10;;;4.40;99.90;;;;;;5116217;28;20043;-89
2022/03/02 00:43:57;;;;;;;0.20;0.20;;;4.30;99.90;;;;;;5082543;28;20069;-85
2022/03/02 00:46:29;;;;;;;0.20;0.20;;;4.30;99.90;;;;;;5132597;28;20511;-89
2022/03/02 00:48:57;;;;;;;0.15;0.15;;;4.80;99.90;;;;;;5084197;28;20530;-90
2022/03/02 00:51:24;;;;;;;0.20;0.20;;;4.30;99.90;;;;;;5099119;28;20035;-85
2022/03/02 00:53:53;;;;;;;0.10;0.10;;;4.30;99.90;;;;;;5082436;28;20040;-89
2022/03/02 00:56:23;;;;;;;0.10;0.10;;;4.30;99.90;;;;;;5115439;28;20035;-89
2022/03/02 00:58:49;;;;;;;0.20;0.20;;;4.30;99.90;;;;;;5132691;28;20132;-89
2022/03/02 01:01:16;;;;;;;0.10;0.10;;;4.30;99.90;;;;;;5098789;28;20097;-85
2022/03/02 01:03:43;;;;;;;0.20;0.20;;;4.60;99.90;;;;;;5098667;28;20388;-85
2022/03/02 01:06:10;;;;;;;0.17;0.17;;;4.20;99.90;;;;;;5149503;28;20042;-86
2022/03/02 01:08:37;;;;;;;0.10;0.10;;;4.90;99.90;;;;;;5099258;28;20117;-90
2022/03/02 01:11:03;;;;;;;0.10;0.10;;;4.30;99.90;;;;;;5132728;28;20039;-85
2022/03/02 01:13:30;;;;;;;0.10;0.10;;;4.20;99.90;;;;;;5132163;28;20040;-90
2022/03/02 01:15:57;;;;;;;0.20;0.20;;;5.20;99.90;;;;;;5082009;28;20101;-85
2022/03/02 01:18:25;;;;;;;0.10;0.10;;;5.20;99.90;;;;;;5082262;28;20047;-85
2022/03/02 01:20:52;;;;;;;0.20;0.20;;;4.20;99.90;;;;;;5115086;28;20105;-85
2022/03/02 01:23:19;;;;;;;0.30;0.30;;;4.70;99.90;;;;;;5149117;28;20083;-89
2022/03/02 01:25:46;;;;;;;0.35;0.35;;;4.20;99.90;;;;;;5115486;28;20040;-89
2022/03/02 01:28:12;;;;;;;0.10;0.10;;;4.20;99.90;;;;;;5149400;28;20044;-89
2022/03/02 01:30:39;;;;;;;0.17;0.17;;;4.60;99.90;;;;;;5132087;28;20404;-85
2022/03/02 01:33:06;;;;;;;0.10;0.10;;;4.60;99.90;;;;;;5098881;28;20035;-85
2022/03/02 01:35:32;;;;;;;0.20;0.20;;;4.20;99.90;;;;;;5082311;28;20043;-88
2022/03/02 01:37:59;;;;;;;0.10;0.10;;;4.70;99.90;;;;;;5098447;28;20042;-89
2022/03/02 01:40:26;;;;;;;0.20;0.20;;;5.10;99.90;;;;;;5081698;28;20031;-89
2022/03/02 01:42:53;;;;;;;0.10;0.10;;;5.10;99.90;;;;;;5148792;28;20092;-90
2022/03/02 01:45:21;;;;;;;0.10;0.10;;;4.10;99.90;;;;;;5098115;28;20122;-89
2022/03/02 01:47:47;;;;;;;0.68;0.68;;;4.10;99.90;;;;;;5081785;28;20042;-85
2022/03/02 01:50:16;;;;;;;0.20;0.20;;;4.20;99.90;;;;;;5097686;28;20039;-89
2022/03/02 01:52:43;;;;;;;0.20;0.20;;;4.10;99.90;;;;;;5114384;28;20074;-85
2022/03/02 01:55:11;;;;;;;0.10;0.10;;;4.10;99.90;;;;;;5081810;28;20047;-85
2022/03/02 01:57:40;;;;;;;0.10;0.10;;;4.10;99.90;;;;;;5081385;28;20046;-89
2022/03/02 02:00:10;;;;;;;1.00;0.30;;;4.00;99.90;;;;;;5114934;28;20063;-90
2022/03/02 02:02:37;;;;;;;0.10;0.10;;;4.00;99.90;;;;;;5114002;28;20035;-85
2022/03/02 02:05:04;;;;;;;0.28;0.28;;;4.10;99.90;;;;;;5097546;28;20051;-86
2022/03/02 02:07:32;;;;;;;0.20;0.20;;;4.00;99.90;;;;;;5097243;28;20032;-85
2022/03/02 02:09:59;;;;;;;0.10;0.10;;;4.70;99.90;;;;;;5147971;28;20089;-86
2022/03/02 02:12:26;;;;;;;0.10;0.10;;;4.00;99.90;;;;;;5130770;28;20035;-86
2022/03/02 02:14:52;;;;;;;0.75;0.50;;;4.00;99.90;;;;;;5130980;28;20064;-89
2022/03/02 02:17:19;;;;;;;0.10;0.10;;;3.90;99.90;;;;;;5130663;28;20389;-90
2022/03/02 02:19:46;;;;;;;0.13;0.13;;;3.90;99.90;;;;;;5098131;28;20065;-90
2022/03/02 02:22:12;;;;;;;0.47;0.47;;;3.90;99.90;;;;;;5165087;27;20053;-86
2022/03/02 02:24:39;;;;;;;0.10;0.10;;;5.00;99.90;;;;;;5080704;28;20126;-90
2022/03/02 02:27:10;;;;;;;0.20;0.20;;;3.90;99.90;;;;;;5097323;28;20046;-87
2022/03/02 02:29:38;;;;;;;0.20;0.20;;;5.00;99.90;;;;;;5097252;28;20550;-86
2022/03/02 02:32:05;;;;;;;0.17;0.17;;;4.90;99.90;;;;;;5113598;28;20100;-85
2022/03/02 02:34:35;;;;;;;0.20;0.20;;;3.90;99.90;;;;;;5097997;28;20043;-86
2022/03/02 02:37:05;;;;;;;0.20;0.20;;;3.90;99.90;;;;;;5131051;28;20082;-90
2022/03/02 02:39:38;;;;;;;0.20;0.20;;;3.90;99.90;;;;;;5114781;28;20051;-90
2022/03/02 02:42:09;;;;;;;0.10;0.10;;;3.90;99.90;;;;;;5080388;28;20039;-85
2022/03/02 02:44:36;;;;;;;0.10;0.10;;;3.90;99.90;;;;;;5097316;28;20035;-90
2022/03/02 02:47:03;;;;;;;0.20;0.20;;;3.90;99.90;;;;;;5131374;28;20047;-91
2022/03/02 02:49:30;;;;;;;0.10;0.10;;;3.80;99.90;;;;;;5080406;28;20036;-86
2022/03/02 02:51:57;;;;;;;0.40;0.40;;;3.80;99.90;;;;;;5097405;28;20043;-90
2022/03/02 02:54:23;;;;;;;0.20;0.20;;;4.80;99.90;;;;;;5147304;28;20032;-86
2022/03/02 02:56:50;;;;;;;0.20;0.20;;;3.80;99.90;;;;;;5097132;28;20177;-85
2022/03/02 02:59:17;;;;;;;0.20;0.20;;;3.70;99.90;;;;;;5097082;28;20051;-90
2022/03/02 03:01:44;;;;;;;0.32;0.32;;;4.20;99.90;;;;;;5130306;28;20040;-86
2022/03/02 03:04:12;;;;;;;0.30;0.30;;;3.70;99.90;;;;;;5096790;28;20500;-85
2022/03/02 03:06:38;;;;;;;0.20;0.20;;;3.70;99.90;;;;;;5130699;28;20895;-85
2022/03/02 03:09:05;;;;;;;0.20;0.20;;;3.60;99.90;;;;;;5080606;28;20130;-90
2022/03/02 03:11:32;;;;;;;0.10;0.10;;;3.60;99.90;;;;;;5147342;28;20036;-85
2022/03/02 03:13:59;;;;;;;0.47;0.32;;;3.50;99.90;;;;;;5147261;28;20770;-90
2022/03/02 03:16:26;;;;;;;0.10;0.10;;;3.90;99.90;;;;;;5080266;28;20051;-86
2022/03/02 03:18:53;;;;;;;0.10;0.10;;;3.70;99.90;;;;;;5080170;28;20442;-90
2022/03/02 03:21:19;;;;;;;0.10;0.10;;;3.00;99.90;;;;;;5080443;28;20040;-90
2022/03/02 03:23:46;;;;;;;0.10;0.10;;;3.40;99.90;;;;;;5096095;28;20040;-86
2022/03/02 03:26:13;;;;;;;0.17;0.17;;;4.00;99.90;;;;;;5079996;28;20050;-85
2022/03/02 03:28:39;;;;;;;0.10;0.10;;;3.30;99.90;;;;;;5096699;28;20373;-85
2022/03/02 03:31:06;;;;;;;0.25;0.25;;;3.30;99.90;;;;;;5080314;28;20496;-90
2022/03/02 03:33:33;;;;;;;0.30;0.30;;;3.30;99.90;;;;;;5129919;28;20043;-90
2022/03/02 03:36:00;;;;;;;0.10;0.10;;;3.80;99.90;;;;;;5130606;28;20039;-86
2022/03/02 03:38:26;;;;;;;0.10;0.10;;;4.10;99.90;;;;;;5080819;28;20062;-86
2022/03/02 03:40:53;;;;;;;0.20;0.20;;;3.10;99.90;;;;;;5084052;28;20650;-90
2022/03/02 03:43:20;;;;;;;0.20;0.20;;;3.10;99.90;;;;;;5151645;28;20043;-89
2022/03/02 03:45:49;;;;;;;0.10;0.10;;;3.80;99.90;;;;;;5100105;28;20422;-85
2022/03/02 03:48:16;;;;;;;0.20;0.20;;;3.00;99.90;;;;;;5133958;28;20426;-85
2022/03/02 03:50:44;;;;;;;0.20;0.20;;;4.00;99.90;;;;;;5150650;28;20812;-86
2022/03/02 03:53:12;;;;;;;0.10;0.10;;;2.90;99.90;;;;;;5100355;28;20046;-91
2022/03/02 03:55:39;;;;;;;0.10;0.10;;;3.70;99.90;;;;;;5100410;28;20567;-86
2022/03/02 03:58:06;;;;;;;0.30;0.30;;;3.20;99.90;;;;;;5116736;28;20492;-90
2022/03/02 04:00:34;;;;;;;0.10;0.10;;;3.60;99.90;;;;;;5150788;28;20036;-90
2022/03/02 04:03:01;;;;;;;0.20;0.20;;;2.70;99.90;;;;;;5150508;28;20039;-90
2022/03/02 04:05:27;;;;;;;0.10;0.10;;;2.70;99.90;;;;;;5083493;28;20039;-88
2022/03/02 04:07:54;;;;;;;0.20;0.20;;;2.60;99.90;;;;;;5083989;28;20400;-90
2022/03/02 04:10:24;;;;;;;0.17;0.17;;;2.80;99.90;;;;;;5083637;28;20147;-88
2022/03/02 04:12:50;;;;;;;0.20;0.20;;;2.50;99.90;;;;;;5099787;28;20035;-90
2022/03/02 04:15:18;;;;;;;0.20;0.20;;;3.30;99.90;;;;;;5082983;28;20093;-85
2022/03/02 04:17:46;;;;;;;0.20;0.20;;;3.50;99.90;;;;;;5133485;28;20431;-85
2022/03/02 04:20:13;;;;;;;0.20;0.20;;;2.40;99.90;;;;;;5083644;28;20790;-90
2022/03/02 04:22:39;;;;;;;0.20;0.20;;;2.40;99.90;;;;;;5083333;28;20050;-85
2022/03/02 04:25:06;;;;;;;0.20;0.20;;;3.50;99.90;;;;;;5116141;28;20909;-86
2022/03/02 04:27:33;;;;;;;0.20;0.20;;;2.30;99.90;;;;;;5083090;28;20400;-86
2022/03/02 04:30:01;;;;;;;0.20;0.20;;;2.30;99.90;;;;;;5083394;28;20046;-86
2022/03/02 04:32:28;;;;;;;0.20;0.20;;;2.30;99.90;;;;;;5082790;28;20039;-90
2022/03/02 04:34:55;;;;;;;0.13;0.13;;;2.80;99.90;;;;;;5099335;28;20039;-90
2022/03/02 04:37:21;;;;;;;0.20;0.20;;;2.20;99.90;;;;;;5133244;28;20036;-85
2022/03/02 04:39:48;;;;;;;0.20;0.20;;;2.90;99.90;;;;;;5132720;28;20502;-86
2022/03/02 04:42:16;;;;;;;0.20;0.20;;;2.90;99.90;;;;;;5099571;28;20039;-90
2022/03/02 04:44:43;;;;;;;0.20;0.20;;;2.70;99.90;;;;;;5132748;28;20048;-89
2022/03/02 04:47:10;;;;;;;0.10;0.10;;;3.00;99.90;;;;;;5132746;28;20039;-90
2022/03/02 04:49:37;;;;;;;0.20;0.20;;;2.00;99.90;;;;;;5082356;28;20031;-86
2022/03/02 04:52:04;;;;;;;0.20;0.20;;;2.00;99.90;;;;;;5116049;28;20039;-85
2022/03/02 04:57:16;;;;;;;0.20;0.20;;;3.10;99.90;;;;;;5132442;28;20487;-86
2022/03/02 04:59:42;;;;;;;0.20;0.20;;;2.00;99.90;;;;;;5082197;28;20133;-85
2022/03/02 05:02:09;;;;;;;0.20;0.20;;;2.00;99.90;;;;;;5132899;28;20551;-86
2022/03/02 05:04:36;;;;;;;0.20;0.20;;;2.20;99.90;;;;;;5132554;28;20039;-90
2022/03/02 05:07:03;;;;;;;0.20;0.20;;;2.50;99.90;;;;;;5082707;28;20096;-90
2022/03/02 05:09:30;;;;;;;0.20;0.20;;;1.90;99.90;;;;;;5082181;28;20480;-86
2022/03/02 05:11:56;;;;;;;0.20;0.20;;;1.80;99.90;;;;;;5132369;28;20032;-90
2022/03/02 05:14:23;;;;;;;0.20;0.20;;;1.90;99.90;;;;;;5082852;28;20188;-90
2022/03/02 05:16:50;;;;;;;0.20;0.20;;;2.80;99.90;;;;;;5131466;28;20052;-85
2022/03/02 05:19:17;;;;;;;0.20;0.20;;;1.70;99.90;;;;;;5131997;28;20047;-86
2022/03/02 05:21:43;;;;;;;0.20;0.20;;;2.10;99.90;;;;;;5098393;28;20046;-85
2022/03/02 05:24:10;;;;;;;0.20;0.20;;;1.90;99.90;;;;;;5131773;28;20062;-90
2022/03/02 05:26:37;;;;;;;0.45;0.43;;;1.60;99.90;;;;;;5132214;28;20040;-89
2022/03/02 05:29:03;;;;;;;0.20;0.20;;;1.80;99.90;;;;;;5137127;28;20031;-90
2022/03/02 05:31:30;;;;;;;0.20;0.20;;;1.60;99.90;;;;;;5115570;28;20039;-85
2022/03/02 05:33:57;;;;;;;0.40;0.40;;;1.50;99.90;;;;;;5081949;28;20515;-86
2022/03/02 05:36:25;;;;;;;0.20;0.20;;;1.80;99.90;;;;;;5098785;28;20122;-90
2022/03/02 05:38:53;;;;;;;0.20;0.20;;;2.60;99.90;;;;;;5115125;28;20040;-85
2022/03/02 05:41:21;;;;;;;0.20;0.20;;;2.00;99.90;;;;;;5115261;28;20488;-90
2022/03/02 05:43:48;;;;;;;0.20;0.20;;;1.40;99.90;;;;;;5097506;28;20050;-85
2022/03/02 05:46:14;;;;;;;0.20;0.20;;;1.30;99.90;;;;;;5082098;28;20035;-90
2022/03/02 05:48:41;;;;;;;0.20;0.20;;;1.30;99.90;;;;;;5114563;28;20039;-85
2022/03/02 05:51:08;;;;;;;0.20;0.20;;;1.30;99.90;;;;;;5097624;28;20031;-90
2022/03/02 05:53:34;;;;;;;0.20;0.20;;;2.50;99.90;;;;;;5088998;28;20047;-90
2022/03/02 05:56:03;;;;;;;0.20;0.20;;;1.10;99.90;;;;;;5084430;28;20044;-86
2022/03/02 05:58:29;;;;;;;0.20;0.20;;;1.30;99.90;;;;;;5098789;28;20043;-91
2022/03/02 06:00:57;;;;;;;0.20;0.20;;;1.90;99.90;;;;;;5097056;28;20062;-86
2022/03/02 06:03:23;;;;;;;0.30;0.30;;;1.30;99.90;;;;;;5081013;28;20154;-86
2022/03/02 06:05:50;;;;;;;0.20;0.20;;;1.80;99.90;;;;;;5113399;28;20118;-90
2022/03/02 06:08:20;;;;;;;0.20;0.20;;;1.80;99.90;;;;;;5080685;28;20040;-85
2022/03/02 06:10:48;;;;;;;0.30;0.30;;;2.00;99.90;;;;;;5080608;28;20071;-90
2022/03/02 06:13:15;;;;;;;0.30;0.30;;;1.10;99.90;;;;;;5097675;28;20047;-86
2022/03/02 06:15:43;;;;;;;0.30;0.30;;;1.10;99.90;;;;;;5097624;28;20396;-86
2022/03/02 06:18:10;;;;;;;0.25;0.25;;;1.10;99.90;;;;;;5114055;28;20519;-90
2022/03/02 06:20:37;;;;;;;0.20;0.20;;;1.10;99.90;;;;;;5097592;28;20553;-90
2022/03/02 06:23:04;;;;;;;0.30;0.30;;;1.10;99.90;;;;;;5096880;28;20044;-85
2022/03/02 06:25:31;;;;;;;0.20;0.20;;;1.10;99.90;;;;;;5080590;28;20048;-90
2022/03/02 06:27:58;;;;;;;0.28;0.28;;;1.10;99.90;;;;;;5096809;28;20458;-90
2022/03/02 06:30:24;;;;;;;0.25;0.25;;;1.10;99.90;;;;;;5097281;28;20039;-86
2022/03/02 06:32:52;;;;;;;0.20;0.20;;;1.00;99.90;;;;;;5096713;28;20099;-90
2022/03/02 06:35:19;;;;;;;0.30;0.30;;;2.10;99.90;;;;;;5097206;28;20036;-86
2022/03/02 06:37:46;;;;;;;0.20;0.20;;;1.80;99.90;;;;;;5096755;28;20040;-86
2022/03/02 06:40:13;;;;;;;0.20;0.20;;;1.60;99.90;;;;;;5081437;28;20043;-85
2022/03/02 06:43:03;;;;;;;0.30;0.30;;;1.10;99.90;;;;;;5095115;28;20028;-90
2022/03/02 06:45:53;;;;;;;0.25;0.25;;;1.00;99.90;;;;;;5132419;28;20092;-90
2022/03/02 06:48:34;;;;;;;0.30;0.30;;;1.00;99.90;;;;;;5114272;28;20043;-90
2022/03/02 06:51:02;;;;;;;0.20;0.20;;;1.40;99.90;;;;;;5113445;28;20480;-85
2022/03/02 06:53:36;;;;;;;0.20;0.20;;;1.10;99.90;;;;;;5097554;28;20040;-90
2022/03/02 06:56:08;;;;;;;0.30;0.30;;;1.30;99.90;;;;;;5118760;28;20047;-86
2022/03/02 06:58:42;;;;;;;0.20;0.20;;;1.20;99.90;;;;;;5122404;28;20062;-85
2022/03/02 07:01:11;;;;;;;0.20;0.20;;;1.20;99.90;;;;;;5129825;28;20042;-90
2022/03/02 07:03:47;;;;;;;0.20;0.20;;;1.60;99.90;;;;;;5113791;28;20051;-89
2022/03/02 07:06:15;;;;;;;0.22;0.22;;;1.30;99.90;;;;;;5113494;28;20070;-85
2022/03/02 07:08:45;;;;;;;0.30;0.30;;;1.80;99.90;;;;;;5096802;28;20043;-85
2022/03/02 07:11:12;;;;;;;0.55;0.55;;;1.30;99.90;;;;;;5124061;28;20514;-90
2022/03/02 07:13:39;;;;;;;1.45;0.50;;;1.40;99.90;;;;;;5099375;28;20047;-85
2022/03/02 07:16:06;;;;;;;0.30;0.30;;;1.40;99.90;;;;;;5083743;28;20051;-85
2022/03/02 07:18:34;;;;;;;0.20;0.20;;;1.40;99.90;;;;;;5084713;28;20259;-85
2022/03/02 07:21:05;;;;;;;0.20;0.20;;;1.40;99.90;;;;;;5100922;28;20049;-90
2022/03/02 07:23:36;;;;;;;0.85;0.85;;;1.80;99.90;;;;;;5128292;27;20035;-90
2022/03/02 07:26:05;;;;;;;0.20;0.20;;;2.70;99.90;;;;;;5137770;27;20811;-85
2022/03/02 07:28:37;;;;;;;0.30;0.30;;;1.50;99.90;;;;;;5137632;27;20035;-90
2022/03/02 07:31:06;;;;;;;0.20;0.20;;;1.60;99.90;;;;;;5137287;27;20495;-85
2022/03/02 07:33:37;;;;;;;0.20;0.20;;;1.60;99.90;;;;;;5137624;27;20158;-90
2022/03/02 07:36:04;;;;;;;0.20;0.20;;;1.70;99.90;;;;;;5127863;28;20507;-85
2022/03/02 07:38:32;;;;;;;0.30;0.30;;;2.00;99.90;;;;;;5113239;27;20032;-90
2022/03/02 07:40:58;;;;;;;0.20;0.20;;;1.70;99.90;;;;;;5083171;28;20384;-89
2022/03/02 07:43:25;;;;;;;0.30;0.30;;;1.80;99.90;;;;;;5086398;28;20100;-89
2022/03/02 07:45:52;;;;;;;0.20;0.20;;;3.00;99.90;;;;;;5089597;28;20035;-85
2022/03/02 07:48:18;;;;;;;0.20;0.20;;;1.90;99.90;;;;;;5082820;28;20035;-90
2022/03/02 07:50:46;;;;;;;0.20;0.20;;;1.90;99.90;;;;;;5118779;27;20043;-90
2022/03/02 07:53:16;;;;;;;0.28;0.28;;;2.00;99.90;;;;;;5113675;28;20100;-89
2022/03/02 07:55:44;;;;;;;0.20;0.20;;;2.00;99.90;;;;;;5100170;28;20519;-89
2022/03/02 07:58:11;;;;;;;0.20;0.20;;;3.20;99.90;;;;;;5083268;28;20070;-84
2022/03/02 08:00:38;;;;;;;0.20;0.20;;;2.10;99.90;;;;;;5102389;27;20035;-89
2022/03/02 08:03:07;;;;;;;0.20;0.20;;;2.20;99.90;;;;;;5099687;28;20040;-85
2022/03/02 08:05:34;;;;;;;0.35;0.35;;;2.20;99.90;;;;;;5100000;28;20062;-84
2022/03/02 08:08:01;;;;;;;0.52;0.50;;;2.30;99.90;;;;;;5099901;28;20035;-90
2022/03/02 08:10:28;;;;;;;0.20;0.20;;;2.90;99.90;;;;;;5100040;28;20446;-90
2022/03/02 08:12:55;;;;;;;0.20;0.20;;;2.40;99.90;;;;;;5133158;28;20031;-84
2022/03/02 08:15:23;;;;;;;0.20;0.20;;;3.10;99.90;;;;;;5099012;28;20051;-85
2022/03/02 08:17:50;;;;;;;1.75;0.52;;;2.80;99.90;;;;;;5150254;28;20108;-86
2022/03/02 08:20:17;;;;;;;0.20;0.20;;;3.00;99.90;;;;;;5085472;28;20127;-85
2022/03/02 08:22:48;;;;;;;0.20;0.20;;;3.20;99.90;;;;;;5086465;28;20051;-87
2022/03/02 08:25:21;;;;;;;0.20;0.20;;;3.20;99.90;;;;;;5119444;27;20043;-86
2022/03/02 08:27:51;;;;;;;1.00;0.63;;;2.80;99.90;;;;;;5122899;28;20092;-88
2022/03/02 08:30:17;;;;;;;0.30;0.30;;;3.30;99.90;;;;;;5120830;28;20039;-85
2022/03/02 08:32:47;;;;;;;0.32;0.32;;;3.30;99.90;;;;;;5084421;28;20164;-89
2022/03/02 08:35:14;;;;;;;0.32;0.32;;;3.10;99.90;;;;;;5128688;27;20450;-85
2022/03/02 08:37:42;;;;;;;0.40;0.40;;;3.20;99.90;;;;;;5118579;28;20519;-89
2022/03/02 08:40:10;;;;;;;0.20;0.20;;;3.30;99.90;;;;;;5098091;28;20071;-89
2022/03/02 08:42:38;;;;;;;0.20;0.20;;;3.40;99.90;;;;;;5152148;27;20050;-86
2022/03/02 08:45:05;;;;;;;0.20;0.20;;;3.40;99.90;;;;;;5106051;27;20042;-85
2022/03/02 08:47:32;;;;;;;0.20;0.20;;;3.50;99.90;;;;;;5110751;27;20476;-85
2022/03/02 08:49:59;;;;;;;0.20;0.20;;;3.60;99.90;;;;;;5102182;27;20041;-91
2022/03/02 08:52:32;;;;;;;0.40;0.40;;;3.70;99.90;;;;;;5094075;28;20047;-85
2022/03/02 08:55:04;;;;;;;0.20;0.20;;;3.80;99.90;;;;;;5131673;28;20112;-85
2022/03/02 08:57:34;;;;;;;0.20;0.20;;;3.80;99.90;;;;;;5116049;28;20042;-86
2022/03/02 09:00:03;;;;;;;0.10;0.10;;;3.90;99.90;;;;;;5091863;28;20070;-86
2022/03/02 09:02:31;;;;;;;0.20;0.20;;;3.90;99.90;;;;;;5095447;28;20039;-86
2022/03/02 09:05:01;;;;;;;0.20;0.20;;;4.10;99.90;;;;;;5098426;28;20040;-89
2022/03/02 09:07:27;;;;;;;0.40;0.40;;;4.20;99.90;;;;;;5136061;27;20066;-85
2022/03/02 09:09:55;;;;;;;0.10;0.10;;;4.30;99.90;;;;;;5112333;27;20527;-86
2022/03/02 09:12:22;;;;;;;0.30;0.30;;;4.30;99.90;;;;;;5105567;28;20036;-89
2022/03/02 09:14:49;;;;;;;0.20;0.20;;;4.40;99.90;;;;;;5097777;28;20046;-87
2022/03/02 09:17:18;;;;;;;0.15;0.15;;;5.10;99.90;;;;;;5081297;28;20492;-87
2022/03/02 09:19:45;;;;;;;0.20;0.20;;;4.60;99.90;;;;;;5115077;28;20039;-87
2022/03/02 09:22:12;;;;;;;0.20;0.20;;;4.90;99.90;;;;;;5114458;28;20112;-85
2022/03/02 09:24:40;;;;;;;0.20;0.20;;;4.80;99.90;;;;;;5117465;27;20046;-86
2022/03/02 09:27:09;;;;;;;0.20;0.20;;;4.90;99.90;;;;;;5125454;28;20114;-88
2022/03/02 09:29:42;;;;;;;0.10;0.10;;;4.90;99.90;;;;;;5115049;28;20047;-85
2022/03/02 09:32:10;;;;;;;0.20;0.20;;;6.10;99.90;;;;;;5113610;28;20114;-88
2022/03/02 09:34:44;;;;;;;0.20;0.20;;;5.80;99.90;;;;;;5098148;28;20491;-88
2022/03/02 09:37:14;;;;;;;0.20;0.20;;;5.30;99.90;;;;;;5113227;28;20043;-88
2022/03/02 09:39:43;;;;;;;0.20;0.20;;;5.60;99.90;;;;;;5114381;28;20047;-85
2022/03/02 09:42:18;;;;;;;0.80;0.65;;;5.50;99.90;;;;;;5132692;28;20547;-88
2022/03/02 09:44:47;;;;;;;0.10;0.10;;;5.50;99.90;;;;;;5114253;28;20051;-86
2022/03/02 09:47:17;;;;;;;0.20;0.20;;;5.70;99.90;;;;;;5113437;28;20043;-88
2022/03/02 09:49:51;;;;;;;0.10;0.10;;;5.70;99.90;;;;;;5117590;27;20114;-85
2022/03/02 09:52:20;;;;;;;0.10;0.10;;;5.90;99.90;;;;;;5128638;28;20035;-88
2022/03/02 09:54:52;;;;;;;0.10;0.10;;;5.90;99.90;;;;;;5081828;28;20048;-88
2022/03/02 09:57:20;;;;;;;0.10;0.10;;;6.00;99.90;;;;;;5113601;28;20496;-85
2022/03/02 09:59:53;;;;;;;0.10;0.10;;;6.10;99.90;;;;;;5108568;28;20067;-86
2022/03/02 10:02:47;;;;;;;0.75;0.52;;;6.20;99.90;;;;;;5130715;28;20039;-86
2022/03/02 10:05:22;;;;;;;0.10;0.10;;;6.20;99.90;;;;;;5113462;28;20580;-86
2022/03/02 10:08:03;;;;;;;0.10;0.10;;;6.30;99.90;;;;;;5097217;28;20038;-85
2022/03/02 10:10:33;;;;;;;0.10;0.10;;;6.60;99.90;;;;;;5113264;28;20036;-89
2022/03/02 10:13:03;;;;;;;0.10;0.10;;;6.50;99.90;;;;;;5113760;28;20038;-88
2022/03/02 10:15:33;;;;;;;0.20;0.20;;;6.20;99.90;;;;;;5119220;27;20125;-88
2022/03/02 10:18:02;;;;;;;0.10;0.10;;;6.70;99.90;;;;;;5125547;28;20055;-86
2022/03/02 10:20:31;;;;;;;0.20;0.20;;;7.10;99.90;;;;;;5126958;27;20431;-88
2022/03/02 10:23:28;;;;;;;0.80;0.30;;;6.80;99.90;;;;;;5116765;27;20381;-88
2022/03/02 10:26:19;;;;;;;0.10;0.10;;;6.90;99.90;;;;;;5134594;27;20043;-90
2022/03/02 10:28:48;;;;;;;0.10;0.10;;;7.00;99.90;;;;;;5134782;27;20046;-91
2022/03/02 10:31:40;;;;;;;0.10;0.10;;;7.10;99.90;;;;;;5132997;27;20043;-85
2022/03/02 10:34:25;;;;;;;0.10;0.10;;;7.20;99.90;;;;;;5149923;27;20039;-86
2022/03/02 10:36:59;;;;;;;0.20;0.20;;;7.20;99.90;;;;;;5133243;27;20130;-86
2022/03/02 10:39:38;;;;;;;0.08;0.08;;;7.20;99.90;;;;;;5132924;27;20406;-85
2022/03/02 10:42:06;;;;;;;0.20;0.20;;;7.30;99.90;;;;;;5134032;27;20080;-89
2022/03/02 10:44:51;;;;;;;0.17;0.17;;;7.40;99.90;;;;;;5116330;28;20039;-87
2022/03/02 10:47:21;;;;;;;0.20;0.20;;;7.50;99.90;;;;;;5132461;28;20406;-88
2022/03/02 10:49:51;;;;;;;0.82;0.25;;;7.60;99.90;;;;;;5150463;27;20407;-88
2022/03/02 10:52:21;;;;;;;0.10;0.10;;;7.60;99.90;;;;;;5116080;28;20114;-86
2022/03/02 10:54:49;;;;;;;0.10;0.10;;;7.70;99.90;;;;;;5149950;28;20039;-85
2022/03/02 10:57:19;;;;;;;0.10;0.10;;;7.70;99.90;;;;;;5116259;28;20031;-86
2022/03/02 10:59:46;;;;;;;0.10;0.10;;;7.80;99.90;;;;;;5133541;27;20399;-89
2022/03/02 11:02:13;;;;;;;0.10;0.10;;;7.80;99.90;;;;;;5115994;28;20047;-85
2022/03/02 11:04:45;;;;;;;0.10;0.10;;;7.90;99.90;;;;;;5116352;28;20046;-89
2022/03/02 11:07:14;;;;;;;0.00;0.00;;;8.00;99.90;;;;;;5116338;28;20084;-86
2022/03/02 11:09:47;;;;;;;0.00;0.00;;;8.10;99.90;;;;;;5116556;28;20066;-91
2022/03/02 11:12:15;;;;;;;0.22;0.22;;;8.10;99.90;;;;;;5117076;28;20043;-90
2022/03/02 11:15:03;;;;;;;0.10;0.10;;;8.10;99.90;;;;;;5133266;28;20080;-85
2022/03/02 11:17:30;;;;;;;0.10;0.10;;;8.20;99.90;;;;;;5133130;28;20094;-89
2022/03/02 11:19:58;;;;;;;0.43;0.20;;;8.20;99.90;;;;;;5116691;28;20072;-90
2022/03/02 11:22:27;;;;;;;0.00;0.00;;;8.20;99.90;;;;;;5115575;28;20436;-89
2022/03/02 11:24:57;;;;;;;0.00;0.00;;;8.20;99.90;;;;;;5116630;28;20077;-85
2022/03/02 11:27:38;;;;;;;0.10;0.10;;;8.20;99.90;;;;;;5132178;28;20116;-88
2022/03/02 11:30:17;;;;;;;0.25;0.20;;;8.20;99.90;;;;;;5150204;28;20071;-85
2022/03/02 11:32:46;;;;;;;0.10;0.10;;;8.30;99.90;;;;;;5148099;28;20043;-84
2022/03/02 11:35:17;;;;;;;0.10;0.10;;;8.30;99.90;;;;;;5133291;28;20046;-88
2022/03/02 11:37:43;;;;;;;0.13;0.13;;;8.20;99.90;;;;;;5116140;28;20123;-89
2022/03/02 11:40:14;;;;;;;0.30;0.30;;;8.20;99.90;;;;;;5116718;28;20511;-89
2022/03/02 11:42:42;;;;;;;0.00;0.00;;;8.20;99.90;;;;;;5133314;28;20082;-85
2022/03/02 11:45:11;;;;;;;0.20;0.20;;;8.20;99.90;;;;;;5132590;28;20043;-86
2022/03/02 11:47:45;;;;;;;0.08;0.08;;;8.30;99.90;;;;;;5116348;28;20070;-85
2022/03/02 11:50:13;;;;;;;0.10;0.10;;;8.30;99.90;;;;;;5115955;28;20412;-86
2022/03/02 11:52:46;;;;;;;0.00;0.00;;;8.30;99.90;;;;;;5133261;28;20040;-88
2022/03/02 11:55:19;;;;;;;0.10;0.10;;;8.40;99.90;;;;;;5116448;28;20261;-87
2022/03/02 11:57:53;;;;;;;0.10;0.10;;;8.40;99.90;;;;;;5133229;28;20510;-89
2022/03/02 12:00:28;;;;;;;0.20;0.20;;;8.40;99.90;;;;;;5110602;27;20061;-89
2022/03/02 12:02:58;;;;;;;0.10;0.10;;;8.40;99.90;;;;;;5137211;27;20076;-86
2022/03/02 12:05:28;;;;;;;0.00;0.00;;;8.40;99.90;;;;;;5115791;28;20032;-86
2022/03/02 12:08:10;;;;;;;0.20;0.20;;;8.40;99.90;;;;;;5133228;28;20484;-86
2022/03/02 12:10:42;;;;;;;0.10;0.10;;;8.40;99.90;;;;;;5133010;28;20040;-86
2022/03/02 12:13:17;;;;;;;0.10;0.10;;;8.50;99.90;;;;;;5116408;27;20101;-88
2022/03/02 12:15:45;;;;;;;0.10;0.10;;;8.50;99.90;;;;;;5119513;27;20051;-89
2022/03/02 12:18:14;;;;;;;0.10;0.10;;;8.50;99.90;;;;;;5136849;27;20046;-86
2022/03/02 12:20:52;;;;;;;0.10;0.10;;;8.50;99.90;;;;;;5115834;28;20072;-89
2022/03/02 12:23:27;;;;;;;0.10;0.10;;;8.50;99.90;;;;;;5099518;28;20434;-86
2022/03/02 12:25:55;;;;;;;0.10;0.10;;;8.50;99.90;;;;;;5119543;27;20131;-86
2022/03/02 12:28:26;;;;;;;0.10;0.10;;;8.50;99.90;;;;;;5135599;27;20518;-88
2022/03/02 12:30:54;;;;;;;0.63;0.30;;;8.50;99.90;;;;;;5132804;28;20036;-89
2022/03/02 12:33:22;;;;;;;0.00;0.00;;;8.60;99.90;;;;;;5132446;28;20035;-89
2022/03/02 12:35:49;;;;;;;0.20;0.20;;;8.70;99.90;;;;;;5118662;27;20513;-86
2022/03/02 12:38:17;;;;;;;0.10;0.10;;;8.60;99.90;;;;;;5119303;27;20039;-88
2022/03/02 12:40:45;;;;;;;0.20;0.20;;;8.60;99.90;;;;;;5136128;27;20057;-89
2022/03/02 12:43:16;;;;;;;0.10;0.10;;;8.60;99.90;;;;;;5152842;27;20043;-89
2022/03/02 12:45:48;;;;;;;0.00;0.00;;;8.70;99.90;;;;;;5135395;27;20035;-89
2022/03/02 12:48:17;;;;;;;0.10;0.10;;;8.70;99.90;;;;;;5136430;27;20062;-86
2022/03/02 12:50:48;;;;;;;0.10;0.10;;;8.60;99.90;;;;;;5135238;27;20043;-86
2022/03/02 12:53:15;;;;;;;0.10;0.10;;;8.70;99.90;;;;;;5136073;27;20047;-89
2022/03/02 12:55:42;;;;;;;0.00;0.00;;;8.60;99.90;;;;;;5102055;27;20062;-86
2022/03/02 12:58:10;;;;;;;0.00;0.00;;;8.70;99.90;;;;;;5102391;27;20077;-88
2022/03/02 13:00:38;;;;;;;0.13;0.13;;;8.80;99.90;;;;;;5135390;27;20520;-84
2022/03/02 13:03:06;;;;;;;0.10;0.10;;;8.80;99.90;;;;;;5119174;27;20043;-86
2022/03/02 13:05:42;;;;;;;0.10;0.10;;;8.70;99.90;;;;;;5135172;27;20560;-86
2022/03/02 13:08:09;;;;;;;0.10;0.10;;;8.70;99.90;;;;;;5136151;27;20046;-89
2022/03/02 13:10:45;;;;;;;0.10;0.10;;;8.70;99.90;;;;;;5151854;27;20404;-85